createdAt,value
2023-05-14T00:00:01.624Z,7.10
2023-05-14T00:02:34.620Z,6.70
2023-05-14T00:05:08.602Z,7.75
2023-05-14T00:07:41.614Z,8.02
2023-05-14T00:10:14.556Z,7.72
2023-05-14T00:12:47.507Z,7.50
2023-05-14T00:15:22.198Z,7.75
2023-05-14T00:17:55.287Z,7.47
2023-05-14T00:20:28.327Z,7.47
2023-05-14T00:23:01.529Z,7.45
2023-05-14T00:25:34.459Z,8.13
2023-05-14T00:28:07.424Z,7.70
2023-05-14T00:30:41.810Z,8.43
2023-05-14T00:33:14.863Z,8.57
2023-05-14T00:35:47.829Z,8.05
2023-05-14T00:38:20.775Z,7.65
2023-05-14T00:40:53.712Z,7.75
2023-05-14T00:43:26.671Z,7.72
2023-05-14T00:46:01.411Z,7.53
2023-05-14T00:48:34.446Z,8.45
2023-05-14T00:51:09.081Z,7.85
2023-05-14T00:53:42.695Z,7.97
2023-05-14T00:56:16.967Z,7.70
2023-05-14T00:58:49.919Z,7.65
2023-05-14T01:01:24.290Z,8.00
2023-05-14T01:03:58.184Z,7.50
2023-05-14T01:06:41.734Z,8.55
2023-05-14T01:09:25.360Z,8.55
2023-05-14T01:12:04.724Z,7.45
2023-05-14T01:14:44.891Z,7.75
2023-05-14T01:17:22.774Z,7.05
2023-05-14T01:19:57.756Z,8.25
2023-05-14T01:22:32.027Z,7.90
2023-05-14T01:25:05.878Z,8.10
2023-05-14T01:27:49.895Z,7.88
2023-05-14T01:30:31.067Z,8.23
2023-05-14T01:33:09.326Z,8.20
2023-05-14T01:35:43.003Z,7.55
2023-05-14T01:38:20.144Z,7.35
2023-05-14T01:40:54.950Z,7.38
2023-05-14T01:43:28.679Z,6.95
2023-05-14T01:46:01.715Z,7.40
2023-05-14T01:48:34.642Z,7.20
2023-05-14T01:51:07.682Z,7.38
2023-05-14T01:53:42.032Z,7.45
2023-05-14T01:56:14.994Z,7.38
2023-05-14T01:58:48.025Z,7.13
2023-05-14T02:01:21.121Z,7.53
2023-05-14T02:03:54.129Z,7.38
2023-05-14T02:06:27.075Z,7.50
2023-05-14T02:09:01.394Z,7.03
2023-05-14T02:11:34.362Z,7.53
2023-05-14T02:14:07.306Z,7.72
2023-05-14T02:16:40.581Z,7.88
2023-05-14T02:19:13.641Z,7.72
2023-05-14T02:21:46.633Z,6.82
2023-05-14T02:24:21.378Z,7.25
2023-05-14T02:26:54.444Z,7.28
2023-05-14T02:29:27.385Z,7.30
2023-05-14T02:32:00.406Z,7.38
2023-05-14T02:34:34.375Z,7.25
2023-05-14T02:37:07.346Z,6.68
2023-05-14T02:39:41.646Z,6.93
2023-05-14T02:42:14.590Z,7.82
2023-05-14T02:44:47.523Z,7.60
2023-05-14T02:47:20.638Z,7.38
2023-05-14T02:49:53.757Z,7.90
2023-05-14T02:52:26.685Z,7.50
2023-05-14T02:55:01.052Z,6.35
2023-05-14T02:57:34.024Z,7.95
2023-05-14T03:00:09.108Z,7.07
2023-05-14T03:02:43.526Z,7.03
2023-05-14T03:05:17.012Z,7.22
2023-05-14T03:07:51.240Z,8.13
2023-05-14T03:10:25.834Z,7.80
2023-05-14T03:12:58.927Z,7.43
2023-05-14T03:15:31.907Z,7.40
2023-05-14T03:18:05.085Z,7.38
2023-05-14T03:20:38.093Z,7.90
2023-05-14T03:23:11.102Z,7.13
2023-05-14T03:25:45.389Z,8.32
2023-05-14T03:28:18.321Z,8.35
2023-05-14T03:30:51.457Z,7.28
2023-05-14T03:33:24.606Z,6.63
2023-05-14T03:35:57.760Z,7.32
2023-05-14T03:38:30.673Z,7.72
2023-05-14T03:41:05.147Z,7.32
2023-05-14T03:43:38.137Z,7.82
2023-05-14T03:46:11.178Z,7.53
2023-05-14T03:48:44.164Z,7.30
2023-05-14T03:51:17.180Z,8.40
2023-05-14T03:53:50.140Z,7.45
2023-05-14T03:56:24.490Z,7.85
2023-05-14T03:58:57.523Z,7.97
2023-05-14T04:01:30.506Z,8.52
2023-05-14T04:04:03.607Z,7.63
2023-05-14T04:06:37.359Z,8.45
2023-05-14T04:09:11.457Z,8.43
2023-05-14T04:11:46.152Z,7.63
2023-05-14T04:14:19.213Z,8.10
2023-05-14T04:16:52.182Z,8.55
2023-05-14T04:19:25.199Z,8.15
2023-05-14T04:21:58.143Z,7.90
2023-05-14T04:24:31.086Z,7.80
2023-05-14T04:27:06.253Z,8.43
2023-05-14T04:29:39.195Z,7.97
2023-05-14T04:32:12.244Z,8.48
2023-05-14T04:34:46.830Z,9.13
2023-05-14T04:37:19.908Z,8.63
2023-05-14T04:39:52.924Z,8.73
2023-05-14T04:42:27.213Z,8.90
2023-05-14T04:45:00.424Z,8.90
2023-05-14T04:47:33.577Z,8.95
2023-05-14T04:50:09.261Z,8.38
2023-05-14T04:52:42.240Z,8.77
2023-05-14T04:55:15.200Z,9.25
2023-05-14T04:57:49.457Z,9.30
2023-05-14T05:00:23.352Z,10.82
2023-05-14T05:02:56.693Z,9.57
2023-05-14T05:05:29.658Z,12.15
2023-05-14T05:08:02.694Z,11.63
2023-05-14T05:10:35.909Z,11.52
2023-05-14T05:13:10.210Z,11.30
2023-05-14T05:15:43.338Z,11.77
2023-05-14T05:18:16.381Z,11.43
2023-05-14T05:20:49.418Z,12.27
2023-05-14T05:23:22.441Z,13.20
2023-05-14T05:25:55.476Z,14.75
2023-05-14T05:28:29.974Z,17.25
2023-05-14T05:31:03.217Z,40.05
2023-05-14T05:33:36.627Z,39.15
2023-05-14T05:36:10.341Z,14.13
2023-05-14T05:38:43.474Z,13.18
2023-05-14T05:42:34.850Z,12.88
2023-05-14T05:45:09.310Z,14.02
2023-05-14T05:47:42.303Z,14.95
2023-05-14T05:50:15.464Z,19.05
2023-05-14T05:52:48.583Z,18.30
2023-05-14T05:55:21.861Z,14.07
2023-05-14T05:59:46.521Z,12.80
2023-05-14T06:04:34.629Z,14.38
2023-05-14T06:07:08.301Z,13.60
2023-05-14T06:09:42.001Z,15.07
2023-05-14T06:13:36.144Z,30.63
2023-05-14T06:16:09.987Z,21.50
2023-05-14T06:18:43.874Z,13.95
2023-05-14T06:21:17.598Z,13.52
2023-05-14T06:23:51.312Z,12.77
2023-05-14T06:27:52.575Z,12.88
2023-05-14T06:31:13.909Z,11.70
2023-05-14T06:35:25.349Z,12.27
2023-05-14T06:37:59.014Z,12.63
2023-05-14T06:40:33.064Z,13.02
2023-05-14T06:43:17.926Z,13.75
2023-05-14T06:45:51.850Z,12.73
2023-05-14T06:48:27.838Z,11.65
2023-05-14T06:52:17.799Z,14.43
2023-05-14T06:54:50.853Z,13.15
2023-05-14T06:57:23.796Z,12.85
2023-05-14T06:59:57.426Z,12.40
2023-05-14T07:02:30.483Z,12.95
2023-05-14T07:05:03.704Z,14.00
2023-05-14T07:07:38.061Z,13.45
2023-05-14T07:10:11.490Z,12.23
2023-05-14T07:12:45.171Z,12.43
2023-05-14T07:15:18.359Z,12.85
2023-05-14T07:17:51.379Z,12.77
2023-05-14T07:20:25.013Z,12.82
2023-05-14T07:22:59.733Z,11.68
2023-05-14T07:25:33.206Z,11.50
2023-05-14T07:28:06.373Z,11.10
2023-05-14T07:30:39.417Z,12.48
2023-05-14T07:33:12.384Z,11.68
2023-05-14T07:35:45.401Z,12.07
2023-05-14T07:38:21.106Z,11.85
2023-05-14T07:40:54.372Z,11.30
2023-05-14T07:43:27.430Z,12.80
2023-05-14T07:46:00.378Z,12.25
2023-05-14T07:48:33.479Z,12.20
2023-05-14T07:51:06.562Z,11.38
2023-05-14T07:53:41.210Z,12.45
2023-05-14T07:56:14.199Z,11.55
2023-05-14T07:58:47.165Z,10.73
2023-05-14T08:01:20.768Z,10.73
2023-05-14T08:03:53.910Z,11.48
2023-05-14T08:06:27.570Z,10.05
2023-05-14T08:09:01.904Z,10.80
2023-05-14T08:11:35.004Z,9.65
2023-05-14T08:14:08.053Z,10.18
2023-05-14T08:16:41.091Z,10.20
2023-05-14T08:19:14.592Z,10.73
2023-05-14T08:21:47.719Z,9.88
2023-05-14T08:24:22.082Z,10.05
2023-05-14T08:26:56.209Z,10.35
2023-05-14T08:29:29.436Z,10.80
2023-05-14T08:32:08.737Z,9.20
2023-05-14T08:34:52.954Z,9.45
2023-05-14T08:37:26.085Z,9.38
2023-05-14T08:40:00.411Z,9.32
2023-05-14T08:42:33.718Z,10.00
2023-05-14T08:45:11.722Z,9.20
2023-05-14T08:47:48.987Z,8.77
2023-05-14T08:50:23.641Z,9.38
2023-05-14T08:52:57.168Z,9.40
2023-05-14T08:55:33.387Z,9.20
2023-05-14T08:58:06.422Z,7.88
2023-05-14T09:00:39.509Z,7.72
2023-05-14T09:03:13.046Z,8.02
2023-05-14T09:05:47.602Z,8.20
2023-05-14T09:08:21.210Z,7.78
2023-05-14T09:10:55.509Z,6.90
2023-05-14T09:13:28.504Z,7.90
2023-05-14T09:16:02.628Z,7.05
2023-05-14T09:18:37.865Z,7.55
2023-05-14T09:21:10.956Z,6.90
2023-05-14T09:23:45.380Z,7.07
2023-05-14T09:26:19.834Z,7.28
2023-05-14T09:28:56.711Z,25.50
2023-05-14T09:31:31.406Z,17.80
2023-05-14T09:34:04.422Z,7.30
2023-05-14T09:36:37.419Z,7.20
2023-05-14T09:39:10.510Z,8.10
2023-05-14T09:41:44.827Z,7.75
2023-05-14T09:44:17.878Z,7.80
2023-05-14T09:46:51.820Z,8.20
2023-05-14T09:49:24.880Z,6.13
2023-05-14T09:51:58.000Z,7.18
2023-05-14T09:54:33.125Z,5.88
2023-05-14T09:57:07.679Z,7.57
2023-05-14T09:59:41.074Z,6.18
2023-05-14T10:02:23.335Z,8.23
2023-05-14T10:04:59.037Z,6.60
2023-05-14T10:07:40.443Z,7.85
2023-05-14T10:10:20.057Z,5.93
2023-05-14T10:12:58.798Z,6.07
2023-05-14T10:15:39.007Z,6.50
2023-05-14T10:18:19.061Z,9.90
2023-05-14T10:21:02.701Z,5.47
2023-05-14T10:23:37.780Z,6.47
2023-05-14T10:26:12.140Z,4.63
2023-05-14T10:28:47.026Z,5.30
2023-05-14T10:31:24.333Z,4.63
2023-05-14T10:33:59.746Z,4.40
2023-05-14T10:36:33.122Z,4.80
2023-05-14T10:39:06.117Z,8.98
2023-05-14T10:41:40.353Z,7.03
2023-05-14T10:44:15.370Z,6.80
2023-05-14T10:46:48.518Z,4.63
2023-05-14T10:49:36.127Z,4.95
2023-05-14T10:52:19.462Z,4.72
2023-05-14T10:54:54.485Z,6.72
2023-05-14T10:57:30.668Z,5.22
2023-05-14T11:00:08.888Z,4.70
2023-05-14T11:02:43.885Z,4.43
2023-05-14T11:05:18.097Z,4.60
2023-05-14T11:07:52.477Z,5.13
2023-05-14T11:10:28.315Z,4.80
2023-05-14T11:13:01.308Z,4.65
2023-05-14T11:15:36.060Z,4.20
2023-05-14T11:18:11.694Z,4.40
2023-05-14T11:20:44.782Z,4.28
2023-05-14T11:23:17.700Z,4.28
2023-05-14T11:25:50.826Z,4.88
2023-05-14T11:28:24.276Z,4.72
2023-05-14T11:30:59.167Z,5.25
2023-05-14T11:33:32.665Z,5.63
2023-05-14T11:36:06.792Z,4.90
2023-05-14T11:38:50.504Z,4.63
2023-05-14T11:41:23.601Z,4.75
2023-05-14T11:43:56.919Z,4.93
2023-05-14T11:46:31.419Z,4.95
2023-05-14T11:49:06.588Z,4.85
2023-05-14T11:51:39.576Z,4.72
2023-05-14T11:54:15.407Z,4.30
2023-05-14T11:56:52.413Z,4.53
2023-05-14T11:59:27.677Z,5.20
2023-05-14T12:02:02.722Z,4.78
2023-05-14T12:04:35.840Z,4.43
2023-05-14T12:07:12.152Z,4.97
2023-05-14T12:09:49.231Z,5.13
2023-05-14T12:12:23.760Z,5.57
2023-05-14T12:14:56.693Z,5.25
2023-05-14T12:17:31.001Z,4.60
2023-05-14T12:20:04.481Z,5.13
2023-05-14T12:22:37.586Z,4.35
2023-05-14T12:25:14.348Z,5.10
2023-05-14T12:27:47.484Z,4.70
2023-05-14T12:30:22.117Z,5.47
2023-05-14T12:32:56.695Z,4.45
2023-05-14T12:35:30.351Z,4.60
2023-05-14T12:38:03.578Z,4.50
2023-05-14T12:40:36.548Z,4.20
2023-05-14T12:43:09.540Z,4.88
2023-05-14T12:45:42.507Z,5.35
2023-05-14T12:48:16.879Z,4.22
2023-05-14T12:50:50.711Z,4.00
2023-05-14T12:53:23.656Z,4.10
2023-05-14T12:55:56.706Z,4.35
2023-05-14T12:58:29.859Z,4.32
2023-05-14T13:01:02.901Z,4.47
2023-05-14T13:03:37.304Z,4.20
2023-05-14T13:06:10.699Z,4.43
2023-05-14T13:08:43.667Z,4.18
2023-05-14T13:11:16.693Z,4.10
2023-05-14T13:13:49.659Z,4.03
2023-05-14T13:16:22.778Z,4.30
2023-05-14T13:18:57.233Z,3.88
2023-05-14T13:21:31.264Z,4.10
2023-05-14T13:24:04.668Z,4.10
2023-05-14T13:26:38.154Z,4.00
2023-05-14T13:29:11.249Z,4.30
2023-05-14T13:31:44.213Z,3.78
2023-05-14T13:34:18.545Z,3.47
2023-05-14T13:36:51.511Z,3.70
2023-05-14T13:39:27.028Z,3.80
2023-05-14T13:42:01.077Z,4.20
2023-05-14T13:44:34.049Z,4.00
2023-05-14T13:47:07.722Z,5.63
2023-05-14T13:49:42.033Z,3.35
2023-05-14T13:52:15.006Z,3.55
2023-05-14T13:54:48.326Z,3.80
2023-05-14T13:57:21.446Z,3.78
2023-05-14T13:59:54.492Z,3.90
2023-05-14T14:02:27.580Z,3.90
2023-05-14T14:05:02.097Z,3.83
2023-05-14T14:07:35.108Z,4.55
2023-05-14T14:10:10.275Z,4.40
2023-05-14T14:12:43.262Z,4.65
2023-05-14T14:15:16.650Z,4.95
2023-05-14T14:17:49.786Z,4.90
2023-05-14T14:20:24.090Z,4.15
2023-05-14T14:22:57.139Z,4.43
2023-05-14T14:25:30.217Z,5.03
2023-05-14T14:28:03.232Z,4.68
2023-05-14T14:30:36.222Z,4.75
2023-05-14T14:33:09.277Z,5.10
2023-05-14T14:35:43.660Z,5.50
2023-05-14T14:38:16.631Z,5.03
2023-05-14T14:40:49.674Z,5.18
2023-05-14T14:43:22.813Z,5.40
2023-05-14T14:45:56.226Z,5.18
2023-05-14T14:48:33.941Z,4.70
2023-05-14T14:51:09.374Z,4.82
2023-05-14T14:53:42.645Z,5.82
2023-05-14T14:56:15.608Z,5.13
2023-05-14T14:58:48.617Z,4.80
2023-05-14T15:01:22.740Z,4.90
2023-05-14T15:03:55.800Z,5.07
2023-05-14T15:06:30.173Z,5.13
2023-05-14T15:09:03.311Z,4.80
2023-05-14T15:11:37.510Z,4.90
2023-05-14T15:14:10.814Z,4.85
2023-05-14T15:16:43.838Z,5.93
2023-05-14T15:19:17.238Z,4.97
2023-05-14T15:21:51.829Z,10.35
2023-05-14T15:24:26.100Z,5.30
2023-05-14T15:26:59.073Z,3.85
2023-05-14T15:29:32.984Z,4.18
2023-05-14T15:32:07.063Z,4.43
2023-05-14T15:34:40.014Z,4.47
2023-05-14T15:37:14.402Z,4.07
2023-05-14T15:39:47.402Z,4.65
2023-05-14T15:42:20.877Z,4.72
2023-05-14T15:44:53.886Z,5.22
2023-05-14T15:47:26.948Z,5.65
2023-05-14T15:50:00.286Z,5.13
2023-05-14T15:52:35.771Z,4.57
2023-05-14T15:55:09.803Z,4.60
2023-05-14T15:57:42.831Z,4.60
2023-05-14T16:00:17.536Z,4.75
2023-05-14T16:02:50.717Z,4.47
2023-05-14T16:05:23.764Z,4.22
2023-05-14T16:07:58.189Z,4.18
2023-05-14T16:10:31.304Z,4.55
2023-05-14T16:13:04.361Z,4.57
2023-05-14T16:15:37.408Z,4.45
2023-05-14T16:18:10.495Z,4.03
2023-05-14T16:20:43.575Z,3.75
2023-05-14T16:23:18.123Z,4.78
2023-05-14T16:25:51.338Z,4.28
2023-05-14T16:28:24.445Z,3.83
2023-05-14T16:30:57.556Z,4.43
2023-05-14T16:33:30.739Z,4.00
2023-05-14T16:36:04.626Z,3.90
2023-05-14T16:38:48.192Z,3.97
2023-05-14T16:41:30.133Z,3.45
2023-05-14T16:44:03.514Z,3.72
2023-05-14T16:46:36.707Z,4.30
2023-05-14T16:49:09.749Z,4.18
2023-05-14T16:51:43.883Z,3.85
2023-05-14T16:54:18.269Z,3.50
2023-05-14T16:56:51.969Z,4.13
2023-05-14T16:59:25.142Z,3.60
2023-05-14T17:01:58.324Z,3.83
2023-05-14T17:04:32.838Z,4.00
2023-05-14T17:07:06.660Z,3.80
2023-05-14T17:09:41.050Z,3.55
2023-05-14T17:12:14.099Z,4.18
2023-05-14T17:14:47.120Z,4.43
2023-05-14T17:17:20.204Z,4.68
2023-05-14T17:19:53.229Z,4.50
2023-05-14T17:22:26.346Z,3.67
2023-05-14T17:25:01.014Z,4.13
2023-05-14T17:27:34.098Z,4.00
2023-05-14T17:30:08.995Z,3.55
2023-05-14T17:32:42.023Z,4.22
2023-05-14T17:35:16.276Z,5.22
2023-05-14T17:37:49.406Z,3.95
2023-05-14T17:40:23.795Z,4.10
2023-05-14T17:42:56.911Z,3.78
2023-05-14T17:45:39.319Z,4.18
2023-05-14T17:48:16.000Z,4.50
2023-05-14T17:50:49.017Z,3.88
2023-05-14T17:53:22.092Z,4.28
2023-05-14T17:55:56.534Z,4.20
2023-05-14T17:58:29.589Z,4.68
2023-05-14T18:01:02.762Z,4.60
2023-05-14T18:03:35.893Z,4.43
2023-05-14T18:06:09.656Z,4.03
2023-05-14T18:08:42.834Z,4.20
2023-05-14T18:11:17.203Z,4.63
2023-05-14T18:13:50.198Z,4.15
2023-05-14T18:16:23.326Z,4.28
2023-05-14T18:18:56.540Z,4.50
2023-05-14T18:21:29.599Z,4.25
2023-05-14T18:24:02.643Z,4.43
2023-05-14T18:26:37.056Z,4.35
2023-05-14T18:29:10.131Z,4.30
2023-05-14T18:31:43.438Z,4.80
2023-05-14T18:34:16.959Z,4.50
2023-05-14T18:36:50.095Z,4.40
2023-05-14T18:39:23.086Z,4.60
2023-05-14T18:41:57.512Z,4.20
2023-05-14T18:44:30.896Z,4.70
2023-05-14T18:47:03.968Z,5.80
2023-05-14T18:49:38.628Z,5.22
2023-05-14T18:52:11.646Z,5.30
2023-05-14T18:54:44.638Z,4.63
2023-05-14T18:57:19.041Z,4.93
2023-05-14T18:59:52.066Z,4.82
2023-05-14T19:02:25.206Z,4.95
2023-05-14T19:04:58.303Z,5.20
2023-05-14T19:07:32.134Z,4.88
2023-05-14T19:10:06.515Z,5.47
2023-05-14T19:12:41.100Z,5.10
2023-05-14T19:15:14.149Z,5.13
2023-05-14T19:17:47.188Z,4.97
2023-05-14T19:20:20.367Z,5.68
2023-05-14T19:22:53.356Z,5.38
2023-05-14T19:25:26.859Z,5.20
2023-05-14T19:28:03.635Z,5.32
2023-05-14T19:30:36.752Z,4.93
2023-05-14T19:33:09.829Z,4.80
2023-05-14T19:35:42.856Z,5.72
2023-05-14T19:38:15.971Z,5.40
2023-05-14T19:40:49.045Z,5.10
2023-05-14T19:43:23.830Z,6.18
2023-05-14T19:45:56.849Z,5.38
2023-05-14T19:48:31.295Z,5.55
2023-05-14T19:51:04.505Z,6.07
2023-05-14T19:53:37.567Z,5.28
2023-05-14T19:56:10.896Z,5.40
2023-05-14T19:58:45.720Z,4.95
2023-05-14T20:01:19.231Z,6.00
2023-05-14T20:03:52.274Z,5.30
2023-05-14T20:06:25.699Z,5.70
2023-05-14T20:08:58.689Z,5.15
2023-05-14T20:11:31.679Z,5.38
2023-05-14T20:14:06.127Z,5.45
2023-05-14T20:16:39.162Z,6.63
2023-05-14T20:19:12.549Z,5.70
2023-05-14T20:21:45.596Z,6.07
2023-05-14T20:24:18.625Z,7.38
2023-05-14T20:26:51.742Z,6.28
2023-05-14T20:29:26.112Z,5.85
2023-05-14T20:31:59.180Z,6.18
2023-05-14T20:34:32.222Z,5.95
2023-05-14T20:37:06.703Z,6.22
2023-05-14T20:39:39.743Z,6.40
2023-05-14T20:42:12.819Z,5.75
2023-05-14T20:44:48.378Z,5.68
2023-05-14T20:47:24.340Z,5.88
2023-05-14T20:49:57.421Z,5.55
2023-05-14T20:52:30.660Z,5.93
2023-05-14T20:55:03.764Z,5.35
2023-05-14T20:57:36.854Z,6.30
2023-05-14T21:00:13.343Z,5.93
2023-05-14T21:02:46.544Z,5.97
2023-05-14T21:05:20.684Z,6.25
2023-05-14T21:07:53.720Z,5.97
2023-05-14T21:10:26.850Z,6.07
2023-05-14T21:13:00.305Z,6.43
2023-05-14T21:15:34.779Z,5.93
2023-05-14T21:18:07.904Z,5.90
2023-05-14T21:20:41.809Z,5.38
2023-05-14T21:23:14.829Z,5.93
2023-05-14T21:25:47.878Z,6.50
2023-05-14T21:28:20.904Z,5.93
2023-05-14T21:30:55.245Z,6.38
2023-05-14T21:33:28.310Z,6.68
2023-05-14T21:36:01.364Z,6.68
2023-05-14T21:38:34.945Z,6.40
2023-05-14T21:41:08.049Z,6.40
2023-05-14T21:43:41.503Z,6.65
2023-05-14T21:46:16.301Z,6.53
2023-05-14T21:48:49.471Z,6.32
2023-05-14T21:51:22.555Z,6.32
2023-05-14T21:53:55.579Z,7.18
2023-05-14T21:56:28.670Z,6.80
2023-05-14T21:59:01.658Z,6.15
2023-05-14T22:01:46.050Z,6.60
2023-05-14T22:04:28.933Z,6.15
2023-05-14T22:07:02.111Z,6.03
2023-05-14T22:09:35.123Z,6.38
2023-05-14T22:12:09.125Z,6.55
2023-05-14T22:14:42.166Z,6.47
2023-05-14T22:17:16.655Z,7.00
2023-05-14T22:19:49.662Z,7.10
2023-05-14T22:22:22.728Z,6.25
2023-05-14T22:24:56.327Z,6.07
2023-05-14T22:27:29.422Z,6.28
2023-05-14T22:30:02.461Z,7.43
2023-05-14T22:32:36.807Z,6.82
2023-05-14T22:35:11.211Z,6.90
2023-05-14T22:37:44.404Z,6.65
2023-05-14T22:40:17.474Z,6.70
2023-05-14T22:42:50.469Z,6.78
2023-05-14T22:45:23.689Z,6.53
2023-05-14T22:47:58.264Z,6.50
2023-05-14T22:50:31.327Z,6.68
2023-05-14T22:53:04.325Z,6.50
2023-05-14T22:55:37.361Z,6.60
2023-05-14T22:58:10.373Z,7.25
2023-05-14T23:00:43.378Z,6.78
2023-05-14T23:03:17.757Z,6.32
2023-05-14T23:05:52.002Z,6.93
2023-05-14T23:08:25.041Z,7.30
2023-05-14T23:10:58.046Z,6.38
2023-05-14T23:13:31.056Z,6.55
2023-05-14T23:16:04.682Z,6.80
2023-05-14T23:18:39.189Z,6.95
2023-05-14T23:21:13.664Z,7.10
2023-05-14T23:23:46.697Z,7.22
2023-05-14T23:26:19.711Z,6.80
2023-05-14T23:28:52.710Z,6.63
2023-05-14T23:31:25.830Z,7.20
2023-05-14T23:34:00.259Z,7.07
2023-05-14T23:36:33.513Z,7.38
2023-05-14T23:39:06.635Z,7.20
2023-05-14T23:41:39.650Z,7.70
2023-05-14T23:44:12.721Z,6.93
2023-05-14T23:46:45.730Z,8.00
2023-05-14T23:49:20.359Z,8.15
2023-05-14T23:51:53.371Z,7.28
2023-05-14T23:54:26.361Z,6.90
2023-05-14T23:56:59.438Z,7.65
2023-05-14T23:59:32.596Z,6.68
